createdAt,value
2017-08-01T16:20:06.620Z,24.53
2017-08-01T16:22:11.278Z,24.60
2017-08-01T16:24:17.556Z,24.30
2017-08-01T16:26:24.411Z,24.40
2017-08-01T16:28:28.917Z,28.30
2017-08-01T16:30:32.712Z,23.67
2017-08-01T16:32:36.443Z,24.70
2017-08-01T16:34:40.511Z,22.60
2017-08-01T16:36:46.589Z,20.70
2017-08-01T16:38:50.578Z,22.47
2017-08-01T16:40:54.050Z,21.20
2017-08-01T16:42:58.170Z,20.30
2017-08-01T16:45:04.983Z,22.33
2017-08-01T16:47:13.269Z,21.40
2017-08-01T16:49:18.046Z,22.00
2017-08-01T16:51:23.806Z,20.20
2017-08-01T16:53:27.559Z,19.30
2017-08-01T16:55:31.218Z,18.17
2017-08-01T16:57:36.624Z,19.10
2017-08-01T16:59:42.368Z,19.83
2017-08-01T17:01:46.144Z,19.70
2017-08-01T17:03:51.147Z,19.10
2017-08-01T17:05:55.869Z,19.43
2017-08-01T17:07:59.479Z,17.43
2017-08-01T17:10:03.027Z,19.00
2017-08-01T17:12:06.653Z,18.50
2017-08-01T17:14:10.446Z,16.83
2017-08-01T17:16:15.459Z,17.87
2017-08-01T17:18:21.564Z,18.57
2017-08-01T17:20:25.363Z,25.77
2017-08-01T17:22:31.608Z,55.17
2017-08-01T17:24:36.416Z,195.23
2017-08-01T17:26:41.408Z,299.30
2017-08-01T17:28:45.416Z,211.53
2017-08-01T17:30:49.049Z,329.27
2017-08-01T17:32:52.678Z,428.27
2017-08-01T17:34:59.596Z,349.83
2017-08-01T17:37:03.346Z,253.63
2017-08-01T17:39:06.897Z,339.60
2017-08-01T17:41:10.822Z,290.47
2017-08-01T17:43:17.245Z,593.60
2017-08-01T17:45:23.754Z,593.53
2017-08-01T17:47:29.959Z,634.77
2017-08-01T17:49:36.388Z,592.27
2017-08-01T17:51:41.894Z,633.97
2017-08-01T17:53:49.151Z,595.77
2017-08-01T17:55:53.867Z,617.37
2017-08-01T17:57:59.042Z,628.20
2017-08-01T18:00:04.739Z,647.93
2017-08-01T18:02:10.951Z,628.77
2017-08-01T18:04:15.983Z,594.37
2017-08-01T18:06:23.047Z,622.80
2017-08-01T18:08:27.680Z,625.60
2017-08-01T18:10:35.472Z,603.17
2017-08-01T18:12:40.919Z,592.27
2017-08-01T18:14:45.196Z,594.97
2017-08-01T18:16:49.011Z,573.93
2017-08-01T18:18:53.797Z,586.17
2017-08-01T18:21:01.664Z,594.33
2017-08-01T18:23:05.765Z,568.00
2017-08-01T18:25:09.466Z,564.37
2017-08-01T18:27:14.616Z,555.83
2017-08-01T18:29:19.502Z,548.90
2017-08-01T18:31:25.261Z,566.13
2017-08-01T18:33:28.996Z,552.40
2017-08-01T18:35:33.886Z,535.17
2017-08-01T18:37:41.754Z,544.20
2017-08-01T18:39:45.867Z,530.07
2017-08-01T18:41:49.865Z,536.23
2017-08-01T18:43:55.607Z,511.00
2017-08-01T18:46:00.572Z,526.50
2017-08-01T18:48:06.759Z,514.30
2017-08-01T18:50:12.087Z,486.30
2017-08-01T18:52:18.181Z,497.93
2017-08-01T18:54:22.681Z,497.73
2017-08-01T18:56:27.129Z,476.87
2017-08-01T18:58:32.973Z,482.50
2017-08-01T19:00:37.682Z,483.07
2017-08-01T19:02:41.437Z,477.53
2017-08-01T19:04:46.680Z,465.27
2017-08-01T19:06:51.781Z,477.80
2017-08-01T19:09:05.918Z,458.07
2017-08-01T19:11:09.218Z,460.20
2017-08-01T19:13:16.009Z,446.60
2017-08-01T19:15:23.150Z,450.17
2017-08-01T19:17:27.158Z,434.70
2017-08-01T19:19:30.923Z,443.63
2017-08-01T19:21:34.549Z,436.83
2017-08-01T19:23:41.522Z,418.83
2017-08-01T19:25:45.329Z,423.43
2017-08-01T19:27:50.650Z,410.40
2017-08-01T19:29:54.728Z,421.30
2017-08-01T19:32:00.021Z,415.07
2017-08-01T19:34:04.374Z,406.47
2017-08-01T19:36:08.520Z,402.40
2017-08-01T19:38:15.230Z,401.30
2017-08-01T19:40:19.144Z,369.43
2017-08-01T19:42:24.815Z,348.77
2017-08-01T19:44:28.307Z,364.47
2017-08-01T19:46:32.084Z,26.13
2017-08-01T19:48:38.356Z,13.93
2017-08-01T19:50:43.983Z,14.57
2017-08-01T19:52:48.718Z,10.93
2017-08-01T19:54:55.644Z,9.87
2017-08-01T19:57:04.904Z,17.70
2017-08-01T19:59:09.112Z,30.67
2017-08-01T20:01:15.710Z,29.77
2017-08-01T20:03:22.583Z,34.23
2017-08-01T20:05:26.889Z,23.77
2017-08-01T20:07:32.650Z,33.43
2017-08-01T20:09:35.844Z,45.60
2017-08-01T20:11:42.288Z,39.50
2017-08-01T20:13:47.912Z,47.93
2017-08-01T20:15:51.607Z,39.20
2017-08-01T20:17:54.790Z,30.97
2017-08-01T20:20:01.330Z,18.03
2017-08-01T20:22:07.154Z,39.43
2017-08-01T20:24:11.036Z,37.90
2017-08-01T20:26:17.455Z,43.23
2017-08-01T20:28:23.194Z,37.47
2017-08-01T20:30:27.054Z,37.97
2017-08-01T20:32:32.120Z,39.63
2017-08-01T20:34:36.276Z,32.60
2017-08-01T20:36:40.849Z,43.13
2017-08-01T20:38:47.139Z,45.17
2017-08-01T20:40:53.619Z,31.63
2017-08-01T20:42:58.772Z,30.43
2017-08-01T20:45:05.123Z,41.07
2017-08-01T20:47:09.847Z,28.27
2017-08-01T20:49:16.360Z,20.30
2017-08-01T20:51:20.390Z,29.93
2017-08-01T20:53:24.830Z,20.43
2017-08-01T20:55:29.791Z,34.70
2017-08-01T20:57:34.285Z,23.77
2017-08-01T20:59:39.859Z,26.57
2017-08-01T21:01:46.498Z,19.00
2017-08-01T21:03:52.766Z,13.60
2017-08-01T21:05:56.758Z,26.33
2017-08-01T21:08:05.549Z,19.80
2017-08-01T21:10:12.038Z,30.60
2017-08-01T21:12:17.786Z,37.67
2017-08-01T21:14:22.246Z,34.67
2017-08-01T21:16:26.631Z,17.50
2017-08-01T21:18:31.345Z,28.60
2017-08-01T21:20:36.634Z,25.83
2017-08-01T21:22:41.615Z,15.50
2017-08-01T21:24:50.214Z,11.70
2017-08-01T21:26:55.066Z,10.23
2017-08-01T21:28:58.404Z,9.57
2017-08-01T21:31:04.336Z,14.20
2017-08-01T21:33:09.987Z,9.37
2017-08-01T21:35:15.502Z,9.23
2017-08-01T21:37:19.344Z,11.77
2017-08-01T21:39:24.538Z,10.20
2017-08-01T21:41:28.357Z,10.07
2017-08-01T21:43:34.995Z,7.67
2017-08-01T21:47:59.965Z,7.47
2017-08-01T21:50:22.118Z,7.23
2017-08-01T21:52:43.078Z,8.67
2017-08-01T21:55:04.322Z,9.50
2017-08-01T21:57:26.830Z,7.20
2017-08-01T21:59:48.372Z,8.27
2017-08-01T22:02:12.056Z,8.17
2017-08-01T22:04:33.550Z,6.70
2017-08-01T22:06:55.201Z,6.93
2017-08-01T22:09:20.923Z,6.00
2017-08-01T22:11:43.507Z,7.37
2017-08-01T22:14:07.229Z,7.60
2017-08-01T22:16:31.409Z,6.90
2017-08-01T22:18:55.490Z,6.90
2017-08-01T22:21:22.475Z,6.27
2017-08-01T22:23:50.052Z,5.70
2017-08-01T22:26:13.562Z,5.50
2017-08-01T22:28:38.699Z,8.07
2017-08-01T22:31:02.754Z,6.97
2017-08-01T22:33:30.089Z,7.63
2017-08-01T22:35:54.588Z,7.13
2017-08-01T22:38:19.181Z,6.90
2017-08-01T22:40:43.104Z,7.27
2017-08-01T22:43:07.450Z,8.23
2017-08-01T22:45:32.340Z,10.30
2017-08-01T22:47:58.260Z,10.30
2017-08-01T22:50:22.339Z,9.70
2017-08-01T22:52:46.002Z,9.27
2017-08-01T22:55:09.780Z,8.60
2017-08-01T22:57:33.554Z,9.53
2017-08-01T22:59:56.176Z,8.77
2017-08-01T23:02:19.764Z,8.90
2017-08-01T23:04:43.025Z,9.67
2017-08-01T23:07:06.240Z,9.00
2017-08-01T23:09:29.758Z,7.10
2017-08-01T23:11:52.025Z,8.40
2017-08-01T23:14:15.855Z,8.20
2017-08-01T23:16:39.427Z,8.27
2017-08-01T23:19:02.686Z,8.63
2017-08-01T23:21:29.254Z,7.67
2017-08-01T23:23:52.172Z,8.87
2017-08-01T23:26:15.640Z,7.97
2017-08-01T23:28:41.202Z,7.43
2017-08-01T23:31:04.614Z,7.47
2017-08-01T23:33:31.363Z,7.57
2017-08-01T23:35:55.330Z,7.20
2017-08-01T23:38:18.914Z,8.90
2017-08-01T23:40:42.263Z,9.00
2017-08-01T23:43:06.225Z,7.80
2017-08-01T23:45:28.869Z,7.40
2017-08-01T23:47:52.643Z,8.07
2017-08-01T23:50:16.434Z,8.30
2017-08-01T23:52:39.377Z,8.27
2017-08-01T23:55:02.203Z,8.03
2017-08-01T23:57:26.716Z,7.47
2017-08-01T23:59:49.928Z,8.80
